.
WxDataArchive / Data Records for 2010-03-19
2010-03-18 March 2010 2010-03-20

Data Records for Friday, 19 March 2010

Time	Temp	Chill	HIndex	Humid	Dewpt	 Wind 	HiWind	WindDir	Rain 	Barom 
-----	----	-----	------	-----	-----	------	------	-------	-----	----- 
00:00	49.9	49.9	49.9	62	37.4	1	4	248	0.00	29.893 
00:05	49.9	49.9	49.9	62	37.4	1	3	248	0.00	29.893 
00:10	49.9	49.9	49.9	62	37.4	0	2	248	0.00	29.893 
00:15	49.8	49.8	49.8	62	37.3	0	3	248	0.00	29.887 
00:20	49.6	49.6	49.6	62	37.1	1	2	248	0.00	29.887 
00:25	49.6	49.6	49.6	62	37.1	0	2	248	0.00	29.887 
00:30	49.6	49.6	49.6	63	37.5	0	2	248	0.00	29.887 
00:35	49.5	49.5	49.5	63	37.4	0	2	248	0.00	29.887 
00:40	49.5	49.5	49.5	63	37.4	1	4	248	0.00	29.887 
00:45	49.4	49.4	49.4	64	37.7	1	3	248	0.00	29.886 
00:50	49.5	49.5	49.5	64	37.8	1	4	248	0.00	29.886 
00:55	49.5	49.5	49.5	64	37.8	1	3	248	0.00	29.886 
01:00	49.5	49.5	49.5	64	37.8	1	3	248	0.00	29.886 
01:05	49.4	49.4	49.4	64	37.7	0	3	248	0.00	29.886 
01:10	49.1	49.1	49.1	64	37.5	0	3	248	0.00	29.886 
01:15	49.1	49.1	49.1	65	37.8	1	3	248	0.00	29.886 
01:20	48.9	48.9	48.9	65	37.7	1	3	248	0.00	29.886 
01:25	48.8	48.8	48.8	65	37.6	0	3	248	0.00	29.886 
01:30	48.8	48.8	48.8	65	37.6	0	3	248	0.00	29.886 
01:35	48.6	48.6	48.6	65	37.4	0	2	248	0.00	29.886 
01:40	48.5	48.5	48.5	66	37.7	1	2	248	0.00	29.886 
01:45	48.5	48.5	48.5	66	37.7	0	2	248	0.00	29.886 
01:50	48.3	48.3	48.3	66	37.5	0	1	248	0.00	29.886 
01:55	48.2	48.2	48.2	67	37.8	1	4	248	0.00	29.886 
02:00	48.2	48.2	48.2	67	37.8	1	2	248	0.00	29.888 
02:05	48.0	48.0	48.0	67	37.6	0	2	248	0.00	29.888 
02:10	48.0	48.0	48.0	67	37.6	0	2	248	0.00	29.888 
02:15	47.9	47.9	47.9	67	37.5	0	1	248	0.00	29.888 
02:20	47.7	47.7	47.7	68	37.7	0	1	248	0.00	29.888 
02:25	47.6	47.6	47.6	68	37.6	1	3	248	0.00	29.888 
02:30	47.6	47.6	47.6	69	37.9	0	2	248	0.00	29.889 
02:35	47.6	47.6	47.6	69	37.9	0	2	248	0.00	29.889 
02:40	47.4	47.4	47.4	69	37.7	0	1	248	0.00	29.889 
02:45	47.3	47.3	47.3	69	37.7	0	2	248	0.00	29.893 
02:50	47.1	47.1	47.1	69	37.5	0	3	248	0.00	29.893 
02:55	47.1	47.1	47.1	69	37.5	1	4	248	0.00	29.893 
03:00	47.0	47.0	47.0	69	37.4	0	2	248	0.00	29.894 
03:05	47.0	47.0	47.0	70	37.7	0	3	248	0.00	29.894 
03:10	46.8	46.8	46.8	70	37.5	1	3	248	0.00	29.894 
03:15	46.5	46.5	46.5	70	37.3	0	2	248	0.00	29.892 
03:20	46.4	46.4	46.4	71	37.5	1	3	248	0.00	29.892 
03:25	46.4	46.4	46.4	71	37.5	1	4	248	0.00	29.892 
03:30	46.2	46.2	46.2	71	37.3	0	2	248	0.00	29.893 
03:35	46.2	46.2	46.2	71	37.3	1	4	248	0.00	29.893 
03:40	46.1	46.1	46.1	71	37.2	1	4	248	0.00	29.893 
03:45	46.1	46.1	46.1	71	37.2	1	3	248	0.00	29.891 
03:50	46.1	46.1	46.1	71	37.2	1	4	248	0.00	29.891 
03:55	46.2	46.2	46.2	71	37.3	1	5	248	0.00	29.891 
04:00	46.2	46.2	46.2	70	37.0	1	4	248	0.00	29.890 
04:05	46.2	46.2	46.2	70	37.0	1	4	248	0.00	29.890 
04:10	46.4	46.4	46.4	70	37.2	2	4	248	0.00	29.890 
04:15	46.5	46.5	46.5	70	37.3	1	9	248	0.00	29.886 
04:20	46.8	46.8	46.8	69	37.2	2	4	248	0.00	29.886 
04:25	46.8	46.8	46.8	69	37.2	1	4	248	0.00	29.886 
04:30	46.7	46.7	46.7	69	37.1	1	4	248	0.00	29.885 
04:35	46.7	46.7	46.7	69	37.1	2	6	248	0.00	29.885 
04:40	46.5	46.5	46.5	69	36.9	1	3	248	0.00	29.885 
04:45	46.4	46.4	46.4	69	36.8	2	4	248	0.00	29.887 
04:50	46.2	46.2	46.2	69	36.6	2	5	248	0.00	29.887 
04:55	46.1	46.1	46.1	69	36.5	1	4	248	0.00	29.887 
05:00	46.0	46.0	46.0	69	36.4	1	4	248	0.00	29.890 
05:05	45.8	45.8	45.8	69	36.2	1	3	248	0.00	29.890 
05:10	45.7	45.7	45.7	69	36.1	2	5	248	0.00	29.890 
05:15	45.7	45.7	45.7	69	36.1	1	4	270	0.00	29.891 
05:20	45.7	45.7	45.7	69	36.1	1	6	248	0.00	29.891 
05:25	45.5	45.5	45.5	69	35.9	1	3	248	0.00	29.891 
05:30	45.4	45.4	45.4	69	35.8	2	4	248	0.00	29.897 
05:35	45.4	45.4	45.4	69	35.8	1	4	248	0.00	29.897 
05:40	45.2	45.2	45.2	70	36.0	1	4	248	0.00	29.897 
05:45	45.1	45.1	45.1	70	35.9	0	3	270	0.00	29.898 
05:50	44.9	44.9	44.9	70	35.7	1	3	248	0.00	29.898 
05:55	44.9	44.9	44.9	70	35.7	0	1	248	0.00	29.898 
06:00	44.8	44.8	44.8	70	35.6	0	3	248	0.00	29.902 
06:05	44.6	44.6	44.6	71	35.8	1	5	248	0.00	29.902 
06:10	44.6	44.6	44.6	71	35.8	1	4	248	0.00	29.902 
06:15	44.6	44.6	44.6	71	35.8	1	3	248	0.00	29.902 
06:20	44.6	44.6	44.6	71	35.8	1	5	225	0.00	29.902 
06:25	44.5	44.5	44.5	71	35.7	0	4	225	0.00	29.902 
06:30	44.5	44.5	44.5	71	35.7	0	3	248	0.00	29.901 
06:35	44.5	44.5	44.5	71	35.7	1	5	248	0.00	29.901 
06:40	44.5	44.5	44.5	71	35.7	1	3	248	0.00	29.901 
06:45	44.3	44.3	44.3	71	35.5	0	2	248	0.00	29.905 
06:50	44.3	44.3	44.3	71	35.5	1	4	248	0.00	29.905 
06:55	44.3	44.3	44.3	71	35.5	1	3	225	0.00	29.905 
07:00	44.2	44.2	44.2	71	35.4	1	4	248	0.00	29.908 
07:05	44.1	44.1	44.1	71	35.3	1	3	248	0.00	29.908 
07:10	44.1	44.1	44.1	71	35.3	1	4	248	0.00	29.908 
07:15	44.1	44.1	44.1	71	35.3	1	4	248	0.00	29.911 
07:20	43.9	43.9	43.9	72	35.5	0	2	248	0.00	29.911 
07:25	43.8	43.8	43.8	72	35.4	0	3	248	0.00	29.911 
07:30	43.6	43.6	43.6	72	35.2	1	3	248	0.00	29.910 
07:35	43.6	43.6	43.6	73	35.5	1	2	248	0.00	29.910 
07:40	43.5	43.5	43.5	73	35.4	0	3	248	0.00	29.910 
07:45	43.3	43.3	43.3	73	35.2	0	3	248	0.00	29.910 
07:50	43.3	43.3	43.3	73	35.2	0	2	248	0.00	29.910 
07:55	43.3	43.3	43.3	74	35.6	1	2	248	0.00	29.910 
08:00	43.3	43.3	43.3	74	35.6	0	2	248	0.00	29.912 
08:05	43.5	43.5	43.5	74	35.8	1	3	248	0.00	29.912 
08:10	43.6	43.6	43.6	73	35.5	1	6	248	0.00	29.912 
08:15	43.9	43.9	43.9	73	35.8	1	4	248	0.00	29.914 
08:20	44.1	44.1	44.1	73	36.0	0	1	248	0.00	29.914 
08:25	44.2	44.2	44.2	73	36.1	0	2	248	0.00	29.914 
08:30	44.3	44.3	44.3	73	36.2	1	3	248	0.00	29.916 
08:35	44.6	44.6	44.6	72	36.1	2	4	248	0.00	29.916 
08:40	44.8	44.8	44.8	72	36.3	0	3	248	0.00	29.916 
08:45	45.1	45.1	45.1	71	36.3	1	4	248	0.00	29.921 
08:50	45.2	45.2	45.2	71	36.4	1	4	248	0.00	29.921 
08:55	45.7	45.7	45.7	70	36.5	1	4	248	0.00	29.921 
09:00	46.2	46.2	46.2	70	37.0	1	5	248	0.00	29.917 
09:05	46.8	46.8	46.8	69	37.2	2	5	248	0.00	29.917 
09:10	47.4	47.4	47.4	68	37.4	2	4	248	0.00	29.917 
09:15	47.7	47.7	47.7	67	37.3	2	5	248	0.00	29.919 
09:20	47.9	47.9	47.9	67	37.5	2	5	248	0.00	29.919 
09:25	48.2	48.2	48.2	68	38.1	1	4	248	0.00	29.919 
09:30	48.6	48.6	48.6	66	37.8	2	4	248	0.00	29.923 
09:35	48.9	48.9	48.9	65	37.7	2	5	248	0.00	29.923 
09:40	49.4	49.4	49.4	65	38.1	1	3	248	0.00	29.923 
09:45	49.8	49.8	49.8	64	38.1	2	7	248	0.00	29.921 
09:50	50.1	50.1	50.1	64	38.4	2	5	248	0.00	29.921 
09:55	50.4	50.4	50.4	64	38.7	2	6	248	0.00	29.921 
10:00	50.7	50.7	50.7	63	38.6	2	5	248	0.00	29.922 
10:05	51.0	51.0	51.0	63	38.9	2	4	248	0.00	29.922 
10:10	51.3	51.3	51.3	62	38.7	3	6	248	0.00	29.922 
10:15	51.7	51.7	51.7	62	39.1	1	4	248	0.00	29.926 
10:20	52.0	52.0	52.0	62	39.4	2	6	248	0.00	29.926 
10:25	52.5	52.5	52.5	60	39.0	2	5	248	0.00	29.926 
10:30	52.8	52.8	52.8	60	39.3	3	9	248	0.00	29.926 
10:35	53.1	53.1	53.1	60	39.6	3	7	248	0.00	29.926 
10:40	53.3	53.3	53.3	59	39.3	2	5	248	0.00	29.926 
10:45	53.9	53.9	53.9	60	40.3	1	4	248	0.00	29.926 
10:50	54.4	54.4	54.4	58	39.9	2	9	248	0.00	29.926 
10:55	54.7	54.7	54.7	58	40.2	3	6	248	0.00	29.926 
11:00	54.8	54.8	54.8	58	40.3	3	7	248	0.00	29.924 
11:05	55.4	55.4	55.4	58	40.9	2	5	248	0.00	29.924 
11:10	56.0	56.0	56.0	57	41.0	2	6	248	0.00	29.924 
11:15	56.5	56.5	56.5	55	40.5	2	6	248	0.00	29.923 
11:20	56.7	56.7	56.7	54	40.2	2	9	248	0.00	29.923 
11:25	57.0	57.0	57.0	55	41.0	2	5	270	0.00	29.923 
11:30	57.2	57.2	57.2	54	40.7	2	6	248	0.00	29.924 
11:35	57.6	57.6	57.6	53	40.6	3	9	270	0.00	29.924 
11:40	57.6	57.6	57.6	52	40.1	3	10	270	0.00	29.924 
11:45	57.6	57.6	57.6	54	41.1	3	9	248	0.00	29.924 
11:50	57.8	57.8	57.8	54	41.3	3	7	248	0.00	29.924 
11:55	58.6	58.6	58.6	52	41.0	3	6	248	0.00	29.924 
12:00	58.9	58.9	58.9	52	41.3	3	10	270	0.00	29.925 
12:05	59.3	59.3	59.3	51	41.2	3	6	270	0.00	29.925 
12:10	59.6	59.6	59.6	51	41.4	3	11	270	0.00	29.925 
12:15	59.8	59.8	59.8	50	41.1	3	6	270	0.00	29.925 
12:20	59.8	59.8	59.8	50	41.1	4	6	270	0.00	29.925 
12:25	60.1	60.1	60.1	49	40.9	5	12	270	0.00	29.925 
12:30	59.9	59.9	59.9	50	41.2	5	12	248	0.00	29.920 
12:35	60.1	60.1	60.1	49	40.9	4	10	270	0.00	29.920 
12:40	60.4	60.4	60.4	48	40.6	5	14	248	0.00	29.920 
12:45	60.5	60.5	60.5	49	41.2	4	13	270	0.00	29.919 
12:50	61.0	61.0	61.0	45	39.5	5	11	270	0.00	29.919 
12:55	61.2	61.2	61.2	46	40.3	4	10	270	0.00	29.919 
13:00	62.0	62.0	62.0	45	40.4	3	10	270	0.00	29.915 
13:05	61.8	61.8	61.8	44	39.7	4	11	270	0.00	29.915 
13:10	61.6	61.6	61.6	44	39.5	4	7	270	0.00	29.915 
13:15	62.0	62.0	62.0	44	39.8	3	6	270	0.00	29.912 
13:20	62.1	62.1	62.1	43	39.3	4	11	270	0.00	29.912 
13:25	62.1	62.1	62.1	43	39.3	4	10	270	0.00	29.912 
13:30	62.1	62.1	62.1	43	39.3	4	7	270	0.00	29.914 
13:35	62.4	62.4	62.4	43	39.6	3	15	270	0.00	29.914 
13:40	62.6	62.6	62.6	41	38.6	4	15	270	0.00	29.914 
13:45	62.7	62.7	62.7	43	39.9	3	7	270	0.00	29.908 
13:50	62.6	62.6	62.6	41	38.6	4	11	270	0.00	29.908 
13:55	62.7	62.7	62.7	41	38.7	4	10	270	0.00	29.908 
14:00	62.9	62.9	62.9	43	40.1	3	7	270	0.00	29.904 
14:05	63.4	63.4	63.4	41	39.3	3	7	248	0.00	29.904 
14:10	63.5	63.5	63.5	38	37.4	4	9	248	0.00	29.904 
14:15	63.4	63.4	63.4	38	37.3	5	11	270	0.00	29.904 
14:20	63.2	63.2	63.2	40	38.5	5	10	270	0.00	29.904 
14:25	63.4	63.4	63.4	41	39.3	4	10	270	0.00	29.904 
14:30	63.4	63.4	63.4	39	38.0	5	13	270	0.00	29.903 
14:35	63.4	63.4	63.4	41	39.3	3	9	270	0.00	29.903 
14:40	63.7	63.7	63.7	39	38.3	4	11	248	0.00	29.903 
14:45	63.9	63.9	63.9	38	37.8	4	10	248	0.00	29.894 
14:50	64.0	64.0	64.0	39	38.5	3	6	270	0.00	29.894 
14:55	64.2	64.2	64.2	37	37.4	5	12	270	0.00	29.894 
15:00	64.2	64.2	64.2	38	38.1	3	10	270	0.00	29.890 
15:05	64.0	64.0	64.0	38	37.9	4	12	292	0.00	29.890 
15:10	64.2	64.2	64.2	37	37.4	4	11	270	0.00	29.890 
15:15	64.5	64.5	64.5	38	38.3	4	11	270	0.00	29.888 
15:20	64.8	64.8	64.8	38	38.6	3	10	248	0.00	29.888 
15:25	64.5	64.5	64.5	36	36.9	4	9	270	0.00	29.888 
15:30	64.2	64.2	64.2	36	36.7	6	12	270	0.00	29.888 
15:35	63.9	63.9	63.9	37	37.1	5	15	270	0.00	29.888 
15:40	64.0	64.0	64.0	38	37.9	5	13	270	0.00	29.888 
15:45	64.3	64.3	64.3	37	37.5	4	10	270	0.00	29.882 
15:50	64.7	64.7	64.7	36	37.1	5	15	248	0.00	29.882 
15:55	64.5	64.5	64.5	37	37.6	4	12	270	0.00	29.882 
16:00	64.7	64.7	64.7	36	37.1	4	12	270	0.00	29.877 
16:05	64.7	64.7	64.7	37	37.8	3	7	270	0.00	29.877 
16:10	65.3	65.3	65.3	36	37.7	3	7	248	0.00	29.877 
16:15	65.3	65.3	65.3	36	37.7	3	10	248	0.00	29.872 
16:20	65.6	65.6	65.6	36	37.9	1	4	248	0.00	29.872 
16:25	65.6	65.6	65.6	35	37.2	4	10	248	0.00	29.872 
16:30	65.5	65.5	65.5	34	36.4	3	7	248	0.00	29.869 
16:35	65.0	65.0	65.0	34	35.9	5	17	270	0.00	29.869 
16:40	64.8	64.8	64.8	35	36.5	4	10	270	0.00	29.869 
16:45	64.7	64.7	64.7	33	34.9	5	11	270	0.00	29.868 
16:50	64.8	64.8	64.8	36	37.2	3	7	248	0.00	29.868 
16:55	64.8	64.8	64.8	35	36.5	3	9	248	0.00	29.868 
17:00	64.8	64.8	64.8	35	36.5	4	9	248	0.00	29.867 
17:05	64.7	64.7	64.7	36	37.1	3	12	270	0.00	29.867 
17:10	64.7	64.7	64.7	35	36.4	4	11	270	0.00	29.867 
17:15	64.5	64.5	64.5	36	36.9	3	11	270	0.00	29.869 
17:20	64.5	64.5	64.5	36	36.9	5	11	248	0.00	29.869 
17:25	64.3	64.3	64.3	35	36.1	4	10	248	0.00	29.869 
17:30	64.5	64.5	64.5	36	36.9	3	10	248	0.00	29.867 
17:35	64.7	64.7	64.7	35	36.4	3	8	270	0.00	29.867 
17:40	64.7	64.7	64.7	35	36.4	4	11	270	0.00	29.867 
17:45	64.5	64.5	64.5	33	34.8	5	11	248	0.00	29.864 
17:50	64.5	64.5	64.5	33	34.8	5	11	248	0.00	29.864 
17:55	64.5	64.5	64.5	35	36.2	3	11	248	0.00	29.864 
18:00	64.5	64.5	64.5	35	36.2	3	13	248	0.00	29.868 
18:05	64.5	64.5	64.5	35	36.2	2	6	248	0.00	29.868 
18:10	64.7	64.7	64.7	35	36.4	2	5	248	0.00	29.868 
18:15	64.5	64.5	64.5	34	35.5	3	8	248	0.00	29.873 
18:20	64.2	64.2	64.2	35	36.0	3	9	248	0.00	29.873 
18:25	64.0	64.0	64.0	35	35.8	2	6	248	0.00	29.873 
18:30	63.5	63.5	63.5	35	35.4	3	7	248	0.00	29.876 
18:35	63.4	63.4	63.4	35	35.3	4	10	248	0.00	29.876 
18:40	63.4	63.4	63.4	35	35.3	3	9	248	0.00	29.876 
18:45	63.4	63.4	63.4	37	36.7	1	3	248	0.00	29.883 
18:50	63.1	63.1	63.1	36	35.7	2	5	270	0.00	29.883 
18:55	63.1	63.1	63.1	37	36.4	1	4	270	0.00	29.883 
19:00	62.9	62.9	62.9	38	36.9	1	4	248	0.00	29.887 
19:05	62.7	62.7	62.7	38	36.7	2	6	270	0.00	29.887 
19:10	62.6	62.6	62.6	39	37.3	2	7	248	0.00	29.887 
19:15	62.3	62.3	62.3	39	37.0	3	5	270	0.00	29.891 
19:20	62.1	62.1	62.1	39	36.8	3	7	248	0.00	29.891 
19:25	62.0	62.0	62.0	39	36.8	2	6	248	0.00	29.891 
19:30	61.6	61.6	61.6	40	37.0	1	4	270	0.00	29.893 
19:35	61.2	61.2	61.2	41	37.3	1	4	270	0.00	29.893 
19:40	61.0	61.0	61.0	40	36.5	2	5	248	0.00	29.893 
19:45	60.9	60.9	60.9	40	36.4	1	4	248	0.00	29.900 
19:50	60.5	60.5	60.5	40	36.1	2	6	270	0.00	29.900 
19:55	60.4	60.4	60.4	40	36.0	3	9	270	0.00	29.900 
20:00	60.2	60.2	60.2	40	35.8	2	6	248	0.00	29.903 
20:05	60.1	60.1	60.1	41	36.3	2	6	270	0.00	29.903 
20:10	59.9	59.9	59.9	41	36.1	1	4	248	0.00	29.903 
20:15	59.8	59.8	59.8	42	36.7	1	4	248	0.00	29.904 
20:20	59.3	59.3	59.3	43	36.8	1	3	248	0.00	29.904 
20:25	59.2	59.2	59.2	43	36.7	1	2	248	0.00	29.904 
20:30	59.3	59.3	59.3	42	36.2	2	6	248	0.00	29.908 
20:35	59.2	59.2	59.2	43	36.7	1	5	248	0.00	29.908 
20:40	59.0	59.0	59.0	43	36.5	1	4	248	0.00	29.908 
20:45	58.9	58.9	58.9	43	36.4	1	3	248	0.00	29.913 
20:50	58.7	58.7	58.7	43	36.3	1	3	248	0.00	29.913 
20:55	58.6	58.6	58.6	44	36.8	0	3	248	0.00	29.913 
21:00	58.4	58.4	58.4	44	36.6	1	3	248	0.00	29.921 
21:05	58.3	58.3	58.3	45	37.1	0	1	248	0.00	29.921 
21:10	58.0	58.0	58.0	45	36.8	0	4	248	0.00	29.921 
21:15	57.8	57.8	57.8	46	37.2	1	4	248	0.00	29.921 
21:20	57.8	57.8	57.8	46	37.2	0	2	248	0.00	29.921 
21:25	57.6	57.6	57.6	46	37.0	0	2	248	0.00	29.921 
21:30	57.5	57.5	57.5	46	36.9	0	3	248	0.00	29.924 
21:35	57.3	57.3	57.3	47	37.2	1	4	248	0.00	29.924 
21:40	57.2	57.2	57.2	47	37.2	1	4	225	0.00	29.924 
21:45	57.2	57.2	57.2	47	37.2	0	2	225	0.00	29.932 
21:50	57.0	57.0	57.0	48	37.5	0	1	225	0.00	29.932 
21:55	56.7	56.7	56.7	48	37.2	0	1	225	0.00	29.932 
22:00	56.6	56.6	56.6	49	37.7	1	3	248	0.00	29.932 
22:05	56.6	56.6	56.6	49	37.7	0	1	248	0.00	29.932 
22:10	56.6	56.6	56.6	49	37.7	1	5	270	0.00	29.932 
22:15	56.5	56.5	56.5	49	37.6	1	3	248	0.00	29.928 
22:20	56.5	56.5	56.5	49	37.6	1	3	248	0.00	29.928 
22:25	56.3	56.3	56.3	50	37.9	0	2	248	0.00	29.928 
22:30	56.0	56.0	56.0	50	37.6	0	2	248	0.00	29.929 
22:35	55.7	55.7	55.7	51	37.9	0	2	248	0.00	29.929 
22:40	55.4	55.4	55.4	51	37.6	0	2	248	0.00	29.929 
22:45	55.3	55.3	55.3	52	38.0	0	1	248	0.00	29.927 
22:50	54.8	54.8	54.8	52	37.5	0	1	248	0.00	29.927 
22:55	54.4	54.4	54.4	53	37.6	0	0	---	0.00	29.927 
23:00	53.9	53.9	53.9	54	37.6	0	0	---	0.00	29.932 
23:05	53.5	53.5	53.5	55	37.7	0	0	---	0.00	29.932 
23:10	53.1	53.1	53.1	56	37.8	0	0	---	0.00	29.932 
23:15	52.6	52.6	52.6	57	37.8	0	0	---	0.00	29.930 
23:20	52.3	52.3	52.3	57	37.5	0	1	248	0.00	29.930 
23:25	52.2	52.2	52.2	58	37.9	0	1	248	0.00	29.930 
23:30	51.9	51.9	51.9	58	37.6	0	0	---	0.00	29.934 
23:35	51.7	51.7	51.7	58	37.4	0	0	---	0.00	29.934 
23:40	51.3	51.3	51.3	59	37.5	0	0	---	0.00	29.934 
23:45	51.0	51.0	51.0	60	37.6	0	0	---	0.00	29.935 
23:50	50.5	50.5	50.5	60	37.1	0	0	---	0.00	29.935 
23:55	50.1	50.1	50.1	61	37.2	0	0	---	0.00	29.935 

CoCoRaHS
IN-AL-39
A2 Web Hosting
Creative Commons License
GoDaddy
search engine by freefind advanced

loaded 2018-11-16 11:26:27 • last modified 2010-11-18 10:43:29
Privacy PolicyDisclaimer
• wx.awcolley.com is powered by PmWiki v.2002016 •
• all content (unless otherwise noted) © 2018 A W Colley